Antares — C6BD4 — position and weather

sailwx.info

Track history (hours):
 
Tides and Currents Weather Stations Pressure Air Temp Water Temp Dewpoint Dewpoint Depression Visibility Wind Speed Wind Dir Waves Ship Positions

Antares

Last reported at 2017-Sep-22 01:46 UTC. Time now 2017-Sep-22 11:45 UTC.
Position N 33°48' E 033°38'.

Length 183 m; draft 9.3 m.

Type: Tanker. MMSI: 311000231.

Date/timePositionNaut miles runAvg speedWind from/ knotsBaromVisibWave heightAir tempDewpointWater temp
2017-Sep-22 01:46N 33°48' E 033°38'311.7
2017-Sep-22 01:30N 33°45' E 033°37'611.7
2017-Sep-22 01:00N 33°40' E 033°33'611.7
2017-Sep-22 00:30N 33°35' E 033°30'611.7
2017-Sep-21 23:59N 33°30' E 033°27'611.8
2017-Sep-21 23:29N 33°24' E 033°24'  
2017-Sep-18 15:56N 33°16' E 033°47'2412.5
2017-Sep-18 14:00N 33°32' E 034°09'  
2017-Sep-13 19:13N 33°54' E 035°18'1 3.8
2017-Sep-13 19:01N 33°54' E 035°17'3 6.4
2017-Sep-13 18:30N 33°54' E 035°13'611.8
2017-Sep-13 18:00N 33°55' E 035°06'1812.2
2017-Sep-13 16:33N 33°60' E 034°45'212.1
2017-Sep-13 16:25N 34°00' E 034°43'512.1
2017-Sep-13 16:01N 34°01' E 034°38'612.1
2017-Sep-13 15:30N 34°03' E 034°30'612.0
2017-Sep-13 14:59N 34°04' E 034°23'611.9
2017-Sep-13 14:30N 34°06' E 034°16'612.1
2017-Sep-13 14:01N 34°07' E 034°09'612.1
2017-Sep-13 13:31N 34°08' E 034°02'612.1
2017-Sep-13 13:01N 34°10' E 033°55'712.3
2017-Sep-13 12:28N 34°12' E 033°47'612.3
2017-Sep-13 12:01N 34°13' E 033°41'712.4
2017-Sep-13 11:26N 34°15' E 033°32'512.5
2017-Sep-13 11:01N 34°15' E 033°26'612.5
2017-Sep-13 10:31N 34°17' E 033°19'1312.4
2017-Sep-13 09:25N 34°21' E 033°03'512.1
2017-Sep-13 09:01N 34°23' E 032°57'612.1
2017-Sep-13 08:31N 34°24' E 032°50'612.0
2017-Sep-13 08:00N 34°26' E 032°43'711.9
2017-Sep-13 07:27N 34°28' E 032°36'511.9
2017-Sep-13 07:00N 34°30' E 032°30'611.8
2017-Sep-13 06:31N 34°32' E 032°23'1811.2
2017-Sep-13 04:53N 34°34' E 032°01'411.1
2017-Sep-13 04:30N 34°34' E 031°56'611.9
2017-Sep-13 03:59N 34°39' E 031°50'2911.8
2017-Sep-13 01:29N 34°50' E 031°18'2411.9
2017-Sep-12 23:30N 34°58' E 030°50'611.9
2017-Sep-12 23:00N 34°60' E 030°43'611.9
2017-Sep-12 22:31N 35°01' E 030°37'611.8
2017-Sep-12 22:01N 35°03' E 030°30'611.6
2017-Sep-12 21:30N 35°05' E 030°23'  
Track history (hours):
 
Tides and Currents Weather Stations Pressure Air Temp Water Temp Dewpoint Dewpoint Depression Visibility Wind Speed Wind Dir Waves Ship Positions

Antares

Last reported at 2017-Sep-22 01:46 UTC. Time now 2017-Sep-22 11:45 UTC.
Position N 33°48' E 033°38'.

Length 183 m; draft 9.3 m.

Type: Tanker. MMSI: 311000231.

Date/timePositionNaut miles runAvg speedWind from/ knotsBaromVisibWave heightAir tempDewpointWater temp
2017-Sep-22 01:46N 33°48' E 033°38'311.7
2017-Sep-22 01:30N 33°45' E 033°37'611.7
2017-Sep-22 01:00N 33°40' E 033°33'611.7
2017-Sep-22 00:30N 33°35' E 033°30'611.7
2017-Sep-21 23:59N 33°30' E 033°27'611.8
2017-Sep-21 23:29N 33°24' E 033°24'  
2017-Sep-18 15:56N 33°16' E 033°47'2412.5
2017-Sep-18 14:00N 33°32' E 034°09'  
2017-Sep-13 19:13N 33°54' E 035°18'1 3.8
2017-Sep-13 19:01N 33°54' E 035°17'3 6.4
2017-Sep-13 18:30N 33°54' E 035°13'611.8
2017-Sep-13 18:00N 33°55' E 035°06'1812.2
2017-Sep-13 16:33N 33°60' E 034°45'212.1
2017-Sep-13 16:25N 34°00' E 034°43'512.1
2017-Sep-13 16:01N 34°01' E 034°38'612.1
2017-Sep-13 15:30N 34°03' E 034°30'612.0
2017-Sep-13 14:59N 34°04' E 034°23'611.9
2017-Sep-13 14:30N 34°06' E 034°16'612.1
2017-Sep-13 14:01N 34°07' E 034°09'612.1
2017-Sep-13 13:31N 34°08' E 034°02'612.1
2017-Sep-13 13:01N 34°10' E 033°55'712.3
2017-Sep-13 12:28N 34°12' E 033°47'612.3
2017-Sep-13 12:01N 34°13' E 033°41'712.4
2017-Sep-13 11:26N 34°15' E 033°32'512.5
2017-Sep-13 11:01N 34°15' E 033°26'612.5
2017-Sep-13 10:31N 34°17' E 033°19'1312.4
2017-Sep-13 09:25N 34°21' E 033°03'512.1
2017-Sep-13 09:01N 34°23' E 032°57'612.1
2017-Sep-13 08:31N 34°24' E 032°50'612.0
2017-Sep-13 08:00N 34°26' E 032°43'711.9
2017-Sep-13 07:27N 34°28' E 032°36'511.9
2017-Sep-13 07:00N 34°30' E 032°30'611.8
2017-Sep-13 06:31N 34°32' E 032°23'1811.2
2017-Sep-13 04:53N 34°34' E 032°01'411.1
2017-Sep-13 04:30N 34°34' E 031°56'611.9
2017-Sep-13 03:59N 34°39' E 031°50'2911.8
2017-Sep-13 01:29N 34°50' E 031°18'2411.9
2017-Sep-12 23:30N 34°58' E 030°50'611.9
2017-Sep-12 23:00N 34°60' E 030°43'611.9
2017-Sep-12 22:31N 35°01' E 030°37'611.8
2017-Sep-12 22:01N 35°03' E 030°30'611.6
2017-Sep-12 21:30N 35°05' E 030°23'  

Dump ship's entire track history